Time;durP1;ratioP1;P1;durP2;ratioP2;P2;SDS_P1;SDS_P2;PMS_P1;PMS_P2;Temp;Humidity;BMP_temperature;BMP_pressure;BME280_temperature;BME280_humidity;BME280_pressure;Samples;Min_cycle;Max_cycle;Signal;HPM_P1;HPM_P2
2022/11/11 00:00:27;;;;;;;5.18;0.95;;;14.70;99.90;;;;;;5083462;28;20085;-44
2022/11/11 00:02:57;;;;;;;5.03;1.00;;;14.70;99.90;;;;;;5090260;28;20032;-48
2022/11/11 00:05:24;;;;;;;5.05;1.10;;;14.70;99.90;;;;;;5090099;28;20024;-49
2022/11/11 00:07:58;;;;;;;5.80;1.60;;;14.70;99.90;;;;;;5090411;28;20040;-45
2022/11/11 00:10:28;;;;;;;7.97;1.25;;;14.80;99.90;;;;;;5089174;28;20020;-50
2022/11/11 00:12:57;;;;;;;7.03;1.45;;;14.80;99.90;;;;;;5090770;28;20034;-44
2022/11/11 00:15:22;;;;;;;9.57;1.60;;;14.80;99.90;;;;;;5089152;28;20477;-50
2022/11/11 00:26:08;;;;;;;5.20;1.58;;;14.80;99.90;;;;;;5090657;28;20081;-50
2022/11/11 00:28:33;;;;;;;7.72;1.65;;;14.80;99.90;;;;;;5090456;28;20469;-46
2022/11/11 00:31:07;;;;;;;6.80;1.48;;;14.80;99.90;;;;;;5078415;28;20016;-50
2022/11/11 00:33:33;;;;;;;8.02;1.52;;;14.90;99.90;;;;;;5090589;28;20021;-48
2022/11/11 00:35:59;;;;;;;7.85;1.60;;;14.90;99.90;;;;;;5090394;28;20115;-45
2022/11/11 00:41:10;;;;;;;8.00;1.30;;;14.90;99.90;;;;;;5090461;28;20035;-48
2022/11/11 00:43:36;;;;;;;8.02;1.48;;;14.90;99.90;;;;;;5090384;28;20020;-45
2022/11/11 00:51:30;;;;;;;7.50;1.33;;;14.90;99.90;;;;;;5093899;28;20116;-44
2022/11/11 00:53:56;;;;;;;11.18;2.33;;;14.90;99.90;;;;;;5092736;28;20103;-45
2022/11/11 00:56:23;;;;;;;8.90;2.10;;;14.90;99.90;;;;;;5093956;28;20028;-45
2022/11/11 00:58:49;;;;;;;11.10;2.22;;;14.90;99.90;;;;;;5093688;28;20048;-51
2022/11/11 01:01:15;;;;;;;8.18;1.65;;;14.90;99.90;;;;;;5084509;28;20055;-55
2022/11/11 01:03:41;;;;;;;8.98;2.30;;;14.90;99.90;;;;;;5093333;28;20024;-55
2022/11/11 01:06:08;;;;;;;10.07;1.92;;;14.90;99.90;;;;;;5093417;28;20502;-47
2022/11/11 01:08:33;;;;;;;12.13;2.05;;;14.80;99.90;;;;;;5093549;28;20036;-53
2022/11/11 01:10:59;;;;;;;14.98;2.22;;;14.80;99.90;;;;;;5093734;28;20494;-44
2022/11/11 01:13:30;;;;;;;10.25;2.05;;;14.90;99.90;;;;;;5093821;28;20085;-48
2022/11/11 01:16:02;;;;;;;14.02;2.15;;;14.80;99.90;;;;;;5093629;28;20020;-49
2022/11/11 01:18:28;;;;;;;9.27;2.10;;;14.90;99.90;;;;;;5093478;28;20500;-43
2022/11/11 01:21:21;;;;;;;10.43;1.80;;;14.80;99.90;;;;;;5093139;28;20036;-52
2022/11/11 01:23:48;;;;;;;11.55;1.45;;;14.80;99.90;;;;;;5089150;28;20054;-54
2022/11/11 01:26:20;;;;;;;8.13;1.58;;;14.80;99.90;;;;;;5093379;28;20016;-50
2022/11/11 01:28:48;;;;;;;9.02;1.85;;;14.80;99.90;;;;;;5093255;28;20455;-47
2022/11/11 01:31:16;;;;;;;9.48;1.95;;;14.80;99.90;;;;;;5092833;28;20070;-46
2022/11/11 01:33:42;;;;;;;12.30;1.85;;;14.80;99.90;;;;;;5093318;28;20040;-44
2022/11/11 01:36:14;;;;;;;9.20;1.67;;;14.90;99.90;;;;;;5093155;28;20068;-49
2022/11/11 01:38:43;;;;;;;11.32;1.67;;;14.80;99.90;;;;;;5093175;28;20032;-48
2022/11/11 01:41:33;;;;;;;7.45;1.40;;;14.80;99.90;;;;;;5093087;28;20028;-42
2022/11/11 01:44:12;;;;;;;8.82;1.70;;;14.80;99.90;;;;;;5092966;28;20028;-56
2022/11/11 01:46:56;;;;;;;8.60;1.90;;;14.80;99.90;;;;;;5092790;28;20081;-42
2022/11/11 01:49:34;;;;;;;7.25;1.42;;;14.90;99.90;;;;;;5092780;28;20115;-49
2022/11/11 01:52:09;;;;;;;9.82;1.40;;;14.90;99.90;;;;;;5092736;28;20031;-52
2022/11/11 01:54:42;;;;;;;7.40;2.08;;;14.90;99.90;;;;;;5093084;28;20028;-50
2022/11/11 01:57:18;;;;;;;14.48;2.17;;;14.90;99.90;;;;;;5091578;28;20055;-48
2022/11/11 01:59:47;;;;;;;13.32;2.25;;;14.90;99.90;;;;;;5083391;28;20031;-49
2022/11/11 02:02:22;;;;;;;13.05;2.60;;;14.80;99.90;;;;;;5089443;28;20024;-41
2022/11/11 02:07:35;;;;;;;12.90;2.70;;;14.80;99.90;;;;;;5079089;28;20035;-49
2022/11/11 02:10:06;;;;;;;13.13;2.25;;;14.80;99.90;;;;;;5092704;28;20066;-49
2022/11/11 02:15:16;;;;;;;11.75;2.47;;;14.70;99.90;;;;;;5092506;28;20034;-42
2022/11/11 02:17:42;;;;;;;12.02;2.13;;;14.70;99.90;;;;;;5092267;28;20024;-42
2022/11/11 02:20:12;;;;;;;15.10;3.20;;;14.60;99.90;;;;;;5092093;28;20055;-41
2022/11/11 02:22:54;;;;;;;15.18;2.60;;;14.60;99.90;;;;;;5092141;28;20431;-41
2022/11/11 02:25:24;;;;;;;13.00;2.17;;;14.60;99.90;;;;;;5092064;28;20021;-53
2022/11/11 02:27:52;;;;;;;10.18;2.72;;;14.60;99.90;;;;;;5091975;28;20024;-47
2022/11/11 02:30:20;;;;;;;10.15;2.22;;;14.60;99.90;;;;;;5090070;28;20111;-51
2022/11/11 02:32:51;;;;;;;13.18;2.05;;;14.60;99.90;;;;;;5091966;28;20059;-49
2022/11/11 02:35:32;;;;;;;11.68;2.25;;;14.60;99.90;;;;;;5092109;28;20276;-50
2022/11/11 02:38:08;;;;;;;15.50;2.70;;;14.60;99.90;;;;;;5091807;28;20040;-59
2022/11/11 02:43:27;;;;;;;18.25;3.03;;;14.60;99.90;;;;;;5090945;28;20058;-45
2022/11/11 02:45:53;;;;;;;15.95;3.03;;;14.60;99.90;;;;;;5091656;28;20012;-53
2022/11/11 02:48:18;;;;;;;16.73;3.00;;;14.50;99.90;;;;;;5091690;28;20032;-54
2022/11/11 02:50:44;;;;;;;15.80;3.00;;;14.50;99.90;;;;;;5091902;28;20035;-57
2022/11/11 02:53:09;;;;;;;19.60;2.95;;;14.50;99.90;;;;;;5091647;28;20035;-49
2022/11/11 02:55:35;;;;;;;9.95;2.92;;;14.40;99.90;;;;;;5091692;28;20050;-57
2022/11/11 02:58:01;;;;;;;15.27;3.00;;;14.40;99.90;;;;;;5091677;28;20035;-59
2022/11/11 03:00:26;;;;;;;11.95;3.20;;;14.40;99.90;;;;;;5078133;28;20040;-45
2022/11/11 03:02:52;;;;;;;12.77;2.83;;;14.40;99.90;;;;;;5091022;28;20476;-53
2022/11/11 03:05:18;;;;;;;10.38;2.92;;;14.30;99.90;;;;;;5078369;28;20025;-50
2022/11/11 03:07:43;;;;;;;12.55;2.88;;;14.30;99.90;;;;;;5091274;28;20558;-54
2022/11/11 03:10:09;;;;;;;8.55;2.53;;;14.30;99.90;;;;;;5091594;28;20438;-49
2022/11/11 03:12:36;;;;;;;16.90;3.08;;;14.20;99.90;;;;;;5091574;28;20539;-50
2022/11/11 03:15:01;;;;;;;16.65;2.72;;;14.30;99.90;;;;;;5091415;28;20024;-56
2022/11/11 03:17:39;;;;;;;10.75;2.70;;;14.30;99.90;;;;;;5091087;28;20059;-52
2022/11/11 03:23:02;;;;;;;12.65;3.45;;;14.30;99.90;;;;;;5078740;28;20023;-58
2022/11/11 03:25:36;;;;;;;15.43;3.08;;;14.20;99.90;;;;;;5091206;28;20032;-46
2022/11/11 03:28:04;;;;;;;12.20;2.85;;;14.20;99.90;;;;;;5077725;28;20541;-53
2022/11/11 03:30:29;;;;;;;15.98;2.60;;;14.20;99.90;;;;;;5087029;28;20024;-51
2022/11/11 03:32:55;;;;;;;12.52;2.85;;;14.20;99.90;;;;;;5091123;28;20315;-42
2022/11/11 03:35:20;;;;;;;13.65;2.65;;;14.20;99.90;;;;;;5091118;28;20044;-51
2022/11/11 03:40:30;;;;;;;13.90;2.70;;;14.30;99.90;;;;;;5090953;28;20035;-49
2022/11/11 03:42:56;;;;;;;14.70;2.50;;;14.30;99.90;;;;;;5090791;28;20024;-44
2022/11/11 03:45:22;;;;;;;16.38;3.28;;;14.20;99.90;;;;;;5088816;28;20111;-43
2022/11/11 03:47:47;;;;;;;14.07;2.70;;;14.30;99.90;;;;;;5085755;28;20040;-52
2022/11/11 03:50:13;;;;;;;14.35;3.25;;;14.30;99.90;;;;;;5089776;28;20052;-45
2022/11/11 03:52:42;;;;;;;18.27;2.90;;;14.30;99.90;;;;;;5083195;28;20111;-50
2022/11/11 03:55:08;;;;;;;14.30;3.15;;;14.20;99.90;;;;;;5090169;28;20020;-42
2022/11/11 03:57:34;;;;;;;20.90;3.20;;;14.30;99.90;;;;;;5081597;28;20025;-54
2022/11/11 03:59:59;;;;;;;11.65;2.08;;;14.30;99.90;;;;;;5090639;28;20035;-49
2022/11/11 04:10:37;;;;;;;12.27;2.67;;;14.20;99.90;;;;;;5072608;28;20032;-51
2022/11/11 04:16:07;;;;;;;13.30;3.00;;;14.20;99.90;;;;;;5071869;28;20043;-45
2022/11/11 04:21:55;;;;;;;16.27;3.40;;;14.20;99.90;;;;;;5091591;28;20051;-44
2022/11/11 04:27:00;;;;;;;17.25;2.83;;;14.20;99.90;;;;;;5093866;28;20043;-47
2022/11/11 04:29:29;;;;;;;10.57;2.33;;;14.20;99.90;;;;;;5094419;28;20392;-54
2022/11/11 04:34:52;;;;;;;10.55;2.60;;;14.20;99.90;;;;;;5092917;28;20388;-42
2022/11/11 04:37:18;;;;;;;16.17;2.38;;;14.20;99.90;;;;;;5093469;28;20032;-46
2022/11/11 04:42:30;;;;;;;15.98;2.97;;;14.10;99.90;;;;;;5094188;28;20499;-47
2022/11/11 04:47:58;;;;;;;15.23;2.83;;;14.10;99.90;;;;;;5091583;28;20516;-44
2022/11/11 04:50:27;;;;;;;11.55;2.55;;;14.10;99.90;;;;;;5083663;28;20028;-45
2022/11/11 04:52:53;;;;;;;15.23;3.73;;;14.00;99.90;;;;;;5087977;28;20095;-47
2022/11/11 04:58:14;;;;;;;13.73;3.35;;;14.00;99.90;;;;;;5034635;28;20033;-51
2022/11/11 05:00:40;;;;;;;15.82;3.17;;;13.90;99.90;;;;;;5087688;28;20017;-53
2022/11/11 05:03:15;;;;;;;13.70;3.60;;;13.90;99.90;;;;;;5088051;28;20119;-46
2022/11/11 05:11:27;;;;;;;16.40;3.17;;;13.90;99.90;;;;;;5083783;28;20507;-49
2022/11/11 05:22:37;;;;;;;13.18;2.72;;;13.80;99.90;;;;;;5076257;28;20146;-47
2022/11/11 05:27:48;;;;;;;9.90;2.50;;;13.80;99.90;;;;;;5093500;28;20408;-41
2022/11/11 05:30:15;;;;;;;13.32;3.05;;;13.80;99.90;;;;;;5092636;28;20020;-47
2022/11/11 05:32:41;;;;;;;19.30;3.15;;;13.90;99.90;;;;;;5084258;28;20020;-46
2022/11/11 05:35:08;;;;;;;15.63;3.50;;;13.90;99.90;;;;;;5085687;28;20032;-44
2022/11/11 05:37:33;;;;;;;17.20;3.17;;;13.90;99.90;;;;;;5091435;28;20036;-48
2022/11/11 05:39:59;;;;;;;15.70;3.28;;;13.90;99.90;;;;;;5093137;28;20032;-55
2022/11/11 05:42:25;;;;;;;11.10;3.10;;;13.90;99.90;;;;;;5092980;28;20416;-51
2022/11/11 05:44:50;;;;;;;10.82;3.03;;;13.80;99.90;;;;;;5093053;28;20027;-49
2022/11/11 05:47:16;;;;;;;9.68;2.95;;;13.90;99.90;;;;;;5092809;28;20068;-44
2022/11/11 05:49:42;;;;;;;10.40;2.92;;;13.90;99.90;;;;;;5092804;28;20372;-47
2022/11/11 05:52:12;;;;;;;10.43;2.70;;;13.90;99.90;;;;;;5092899;28;20380;-51
2022/11/11 05:54:37;;;;;;;13.40;3.10;;;13.90;99.90;;;;;;5092770;28;20556;-55
2022/11/11 05:57:03;;;;;;;18.55;3.47;;;13.90;99.90;;;;;;5092745;28;20052;-47
2022/11/11 05:59:29;;;;;;;10.43;2.95;;;13.90;99.90;;;;;;5089533;28;20467;-44
2022/11/11 06:01:55;;;;;;;16.25;2.90;;;13.90;99.90;;;;;;5082366;28;20100;-47
2022/11/11 06:04:20;;;;;;;14.18;3.03;;;13.90;99.90;;;;;;5091430;28;20024;-46
2022/11/11 06:06:46;;;;;;;15.52;3.15;;;14.00;99.90;;;;;;5088466;28;20020;-48
2022/11/11 06:09:11;;;;;;;13.60;3.13;;;13.90;99.90;;;;;;5090669;28;20039;-49
2022/11/11 06:11:37;;;;;;;14.75;2.70;;;14.00;99.90;;;;;;5090242;28;20385;-50
2022/11/11 06:14:03;;;;;;;17.75;3.03;;;14.00;99.90;;;;;;5089774;28;20103;-48
2022/11/11 06:16:28;;;;;;;16.77;3.75;;;13.90;99.90;;;;;;5091320;28;20028;-41
2022/11/11 06:18:54;;;;;;;17.83;3.00;;;13.90;99.90;;;;;;5085250;28;20024;-43
2022/11/11 06:21:20;;;;;;;15.77;2.83;;;13.90;99.90;;;;;;5092106;28;20052;-45
2022/11/11 06:23:45;;;;;;;11.55;2.67;;;13.90;99.90;;;;;;5092032;28;20545;-48
2022/11/11 06:26:12;;;;;;;16.05;3.42;;;13.90;99.90;;;;;;5092216;28;20028;-45
2022/11/11 06:28:43;;;;;;;12.73;3.20;;;13.90;99.90;;;;;;5091950;28;20039;-45
2022/11/11 06:31:11;;;;;;;14.57;3.22;;;13.90;99.90;;;;;;5092210;28;20533;-48
2022/11/11 06:33:38;;;;;;;16.02;3.63;;;13.90;99.90;;;;;;5092455;28;20100;-48
2022/11/11 06:36:05;;;;;;;15.38;3.13;;;13.90;99.90;;;;;;5088837;28;20024;-42
2022/11/11 06:38:31;;;;;;;19.67;3.58;;;13.90;99.90;;;;;;5083911;28;20028;-42
2022/11/11 06:40:57;;;;;;;18.73;3.55;;;13.80;99.90;;;;;;5091136;28;20757;-46
2022/11/11 06:43:23;;;;;;;12.38;2.83;;;13.80;99.90;;;;;;5090947;28;20032;-48
2022/11/11 06:45:50;;;;;;;20.08;3.72;;;13.80;99.90;;;;;;5091599;28;20032;-52
2022/11/11 06:48:16;;;;;;;13.52;3.63;;;13.80;99.90;;;;;;5091662;28;20058;-50
2022/11/11 06:50:41;;;;;;;14.23;2.80;;;13.80;99.90;;;;;;5091787;28;20020;-52
2022/11/11 06:53:12;;;;;;;16.33;2.97;;;13.70;99.90;;;;;;5091670;28;20030;-47
2022/11/11 06:55:38;;;;;;;13.88;2.90;;;13.80;99.90;;;;;;5091821;28;20492;-47
2022/11/11 06:58:11;;;;;;;14.88;3.10;;;13.80;99.90;;;;;;5091494;28;20074;-49
2022/11/11 07:00:38;;;;;;;17.88;3.00;;;13.80;99.90;;;;;;5091651;28;20028;-53
2022/11/11 07:03:05;;;;;;;13.65;3.42;;;13.80;99.90;;;;;;5087105;28;20032;-42
2022/11/11 07:05:34;;;;;;;15.82;3.20;;;13.70;99.90;;;;;;5087770;28;20417;-56
2022/11/11 07:08:08;;;;;;;15.27;2.75;;;13.70;99.90;;;;;;5086636;28;20032;-44
2022/11/11 07:10:37;;;;;;;15.50;3.13;;;13.70;99.90;;;;;;5091348;28;20047;-50
2022/11/11 07:13:03;;;;;;;13.20;2.72;;;13.60;99.90;;;;;;5091392;28;20028;-55
2022/11/11 07:15:29;;;;;;;12.30;2.83;;;13.70;99.90;;;;;;5091112;28;20050;-45
2022/11/11 07:17:55;;;;;;;8.63;2.90;;;13.70;99.90;;;;;;5091225;28;20028;-44
2022/11/11 07:20:20;;;;;;;14.43;3.10;;;13.70;99.90;;;;;;5090780;28;20104;-52
2022/11/11 07:22:47;;;;;;;14.23;3.42;;;13.70;99.90;;;;;;5091152;28;20035;-51
2022/11/11 07:25:12;;;;;;;12.80;2.80;;;13.70;99.90;;;;;;5090652;28;20027;-47
2022/11/11 07:27:38;;;;;;;14.75;3.20;;;13.80;99.90;;;;;;5090904;28;20103;-50
2022/11/11 07:30:06;;;;;;;12.93;2.35;;;13.80;99.90;;;;;;5090540;28;20035;-50
2022/11/11 07:32:32;;;;;;;14.70;3.15;;;13.80;99.90;;;;;;5087984;28;20016;-54
2022/11/11 07:34:58;;;;;;;17.75;3.40;;;13.80;99.90;;;;;;5090150;28;20056;-45
2022/11/11 07:37:24;;;;;;;15.15;2.80;;;13.80;99.90;;;;;;5089921;28;20070;-52
2022/11/11 07:39:49;;;;;;;11.38;3.22;;;13.80;99.90;;;;;;5087335;28;20099;-46
2022/11/11 07:42:15;;;;;;;14.45;3.20;;;13.80;99.90;;;;;;5080524;28;20384;-47
2022/11/11 07:44:41;;;;;;;12.63;4.07;;;13.80;99.90;;;;;;5090217;28;20035;-48
2022/11/11 07:47:07;;;;;;;16.95;3.25;;;13.80;99.90;;;;;;5090322;28;20032;-48
2022/11/11 07:49:32;;;;;;;17.30;3.40;;;13.80;99.90;;;;;;5090015;28;20118;-54
2022/11/11 07:51:58;;;;;;;14.95;3.00;;;13.80;99.90;;;;;;5090197;28;20016;-51
2022/11/11 07:54:24;;;;;;;16.25;3.00;;;13.80;99.90;;;;;;5089224;28;20063;-47
2022/11/11 07:56:50;;;;;;;10.95;2.78;;;13.80;99.90;;;;;;5089962;28;20024;-45
2022/11/11 07:59:15;;;;;;;20.92;3.40;;;13.80;99.90;;;;;;5090196;28;20032;-53
2022/11/11 08:01:41;;;;;;;13.93;2.92;;;13.90;99.90;;;;;;5089288;28;20485;-41
2022/11/11 08:04:07;;;;;;;15.45;3.17;;;13.90;99.90;;;;;;5090107;28;20473;-48
2022/11/11 08:06:32;;;;;;;19.95;3.35;;;13.90;99.90;;;;;;5089450;28;20392;-49
2022/11/11 08:08:58;;;;;;;11.93;3.00;;;13.90;99.90;;;;;;5089244;28;20047;-42
2022/11/11 08:14:08;;;;;;;15.82;3.30;;;13.90;99.90;;;;;;5082999;28;20046;-46
2022/11/11 08:16:34;;;;;;;15.20;2.75;;;13.90;99.90;;;;;;5087270;28;20020;-56
2022/11/11 08:19:00;;;;;;;16.30;3.40;;;14.00;99.90;;;;;;5087147;28;20020;-43
2022/11/11 08:21:26;;;;;;;9.55;2.50;;;14.00;99.90;;;;;;5089858;28;20052;-44
2022/11/11 08:23:52;;;;;;;13.73;2.72;;;14.00;99.90;;;;;;5089559;28;20020;-48
2022/11/11 08:26:20;;;;;;;18.60;3.00;;;14.00;99.90;;;;;;5089687;28;20024;-43
2022/11/11 08:28:46;;;;;;;11.25;2.42;;;14.00;99.90;;;;;;5089687;28;20031;-49
2022/11/11 08:31:12;;;;;;;11.90;2.55;;;14.10;99.90;;;;;;5089331;28;20016;-51
2022/11/11 08:33:38;;;;;;;12.80;2.67;;;14.10;99.90;;;;;;5077962;28;20131;-53
2022/11/11 08:36:05;;;;;;;16.65;3.05;;;14.20;99.90;;;;;;5086195;28;20091;-53
2022/11/11 08:38:31;;;;;;;13.25;3.17;;;14.20;99.90;;;;;;5077946;28;20044;-47
2022/11/11 08:41:01;;;;;;;14.60;2.53;;;14.20;99.90;;;;;;5075767;28;20444;-47
2022/11/11 08:43:31;;;;;;;15.00;2.70;;;14.20;99.90;;;;;;5069249;28;20021;-53
2022/11/11 08:46:02;;;;;;;15.68;2.60;;;14.30;99.90;;;;;;5085822;28;20030;-47
2022/11/11 08:48:29;;;;;;;12.30;2.55;;;14.30;99.90;;;;;;5069136;28;20111;-48
2022/11/11 08:50:54;;;;;;;17.13;3.05;;;14.30;99.90;;;;;;5070496;28;20031;-45
2022/11/11 08:53:20;;;;;;;15.45;2.17;;;14.20;99.90;;;;;;5074073;28;20028;-51
2022/11/11 08:55:46;;;;;;;11.63;2.55;;;14.30;99.90;;;;;;5085908;28;20031;-50
2022/11/11 08:58:12;;;;;;;13.88;2.80;;;14.30;99.90;;;;;;5080381;28;20116;-44
2022/11/11 09:00:38;;;;;;;13.70;2.60;;;14.30;99.90;;;;;;5071669;28;20021;-52
2022/11/11 09:03:06;;;;;;;10.30;2.17;;;14.30;99.90;;;;;;5076739;28;20074;-44
2022/11/11 09:05:33;;;;;;;13.23;2.60;;;14.30;99.90;;;;;;5090820;28;20036;-52
2022/11/11 09:08:06;;;;;;;10.80;2.40;;;14.40;99.90;;;;;;5082703;28;20031;-50
2022/11/11 09:10:32;;;;;;;15.52;2.22;;;14.30;99.90;;;;;;5079131;28;20119;-44
2022/11/11 09:12:58;;;;;;;13.65;2.33;;;14.30;99.90;;;;;;5084039;28;20089;-45
2022/11/11 09:15:25;;;;;;;11.98;2.35;;;14.30;99.90;;;;;;5093358;28;20028;-47
2022/11/11 09:17:51;;;;;;;12.90;2.88;;;14.40;99.90;;;;;;5093343;28;20050;-45
2022/11/11 09:20:17;;;;;;;13.55;2.03;;;14.40;99.90;;;;;;5081553;28;20491;-53
2022/11/11 09:22:44;;;;;;;10.18;2.10;;;14.40;99.90;;;;;;5082565;28;20016;-46
2022/11/11 09:25:10;;;;;;;7.82;2.17;;;14.50;99.90;;;;;;5074871;28;20023;-47
2022/11/11 09:27:36;;;;;;;12.88;2.72;;;14.40;99.90;;;;;;5076865;28;20036;-45
2022/11/11 09:30:01;;;;;;;10.00;2.97;;;14.30;99.90;;;;;;5080171;28;20456;-47
2022/11/11 09:32:27;;;;;;;12.02;2.60;;;14.20;99.90;;;;;;5082946;28;20032;-52
2022/11/11 09:34:54;;;;;;;14.45;3.15;;;14.20;99.90;;;;;;5084739;28;20020;-50
2022/11/11 09:37:20;;;;;;;10.55;2.58;;;14.20;99.90;;;;;;5076497;28;20044;-54
2022/11/11 09:39:46;;;;;;;15.05;3.47;;;14.20;99.90;;;;;;5091196;28;20032;-43
2022/11/11 09:42:15;;;;;;;12.95;2.70;;;14.20;99.90;;;;;;5092613;28;20603;-52
2022/11/11 09:44:56;;;;;;;;;;;14.10;99.90;;;;;;5093457;28;20537;-49
2022/11/11 09:47:40;;;;;;;13.98;2.72;;;14.00;99.90;;;;;;5092188;28;19919;-45
2022/11/11 09:50:10;;;;;;;12.88;2.85;;;14.00;99.90;;;;;;5089015;28;20020;-45
2022/11/11 09:53:19;;;;;;;15.27;3.28;;;13.90;99.90;;;;;;5092697;28;20028;-47
2022/11/11 09:56:22;;;;;;;16.55;3.28;;;13.90;99.90;;;;;;5082483;28;20112;-43
2022/11/11 09:58:52;;;;;;;9.50;2.58;;;13.90;99.90;;;;;;5090082;28;20124;-55
2022/11/11 10:01:26;;;;;;;11.75;2.53;;;13.90;99.90;;;;;;5076905;28;20025;-47
2022/11/11 10:04:04;;;;;;;12.77;2.40;;;13.90;99.90;;;;;;5085445;28;20035;-47
2022/11/11 10:06:33;;;;;;;14.48;3.20;;;14.00;99.90;;;;;;5092043;28;20391;-46
2022/11/11 10:09:11;;;;;;;10.57;2.28;;;14.10;99.90;;;;;;5092313;28;20111;-48
2022/11/11 10:11:43;;;;;;;14.70;2.75;;;14.10;99.90;;;;;;5092138;28;20031;-53
2022/11/11 10:14:08;;;;;;;11.27;2.70;;;14.20;99.90;;;;;;5092412;28;20032;-48
2022/11/11 10:16:34;;;;;;;13.57;2.97;;;14.40;99.90;;;;;;5090957;28;20021;-46
2022/11/11 10:19:19;;;;;;;12.50;2.42;;;14.60;99.90;;;;;;5091584;28;20048;-43
2022/11/11 10:22:01;;;;;;;12.35;2.20;;;15.30;99.90;;;;;;5092314;28;20492;-47
2022/11/11 10:24:30;;;;;;;9.52;2.20;;;15.60;99.90;;;;;;5080463;28;20032;-52
2022/11/11 10:27:00;;;;;;;10.38;2.22;;;15.90;99.90;;;;;;5091920;28;20435;-45
2022/11/11 10:29:39;;;;;;;11.30;2.28;;;16.00;99.90;;;;;;5092553;28;20062;-53
2022/11/11 10:32:19;;;;;;;13.82;2.00;;;15.80;99.90;;;;;;5089750;28;20057;-45
2022/11/11 10:34:45;;;;;;;14.30;1.98;;;15.60;99.90;;;;;;5092181;28;20027;-45
2022/11/11 10:37:38;;;;;;;10.40;2.33;;;15.40;99.90;;;;;;5091800;28;20440;-52
2022/11/11 10:40:09;;;;;;;12.45;2.22;;;15.30;99.90;;;;;;5091734;28;20508;-46
2022/11/11 10:42:35;;;;;;;13.70;2.97;;;15.10;99.90;;;;;;5091286;28;20032;-46
2022/11/11 10:45:07;;;;;;;14.40;3.05;;;15.00;99.90;;;;;;5091674;28;20035;-54
2022/11/11 10:47:55;;;;;;;10.93;2.00;;;14.90;99.90;;;;;;5090186;28;20032;-52
2022/11/11 10:50:30;;;;;;;12.45;2.83;;;14.90;99.90;;;;;;5081134;28;20030;-42
2022/11/11 10:53:13;;;;;;;10.32;2.33;;;14.90;99.90;;;;;;5085712;28;20069;-51
2022/11/11 10:55:55;;;;;;;13.02;2.85;;;14.90;99.90;;;;;;5078981;28;20020;-48
2022/11/11 10:58:27;;;;;;;7.68;2.22;;;14.80;99.90;;;;;;5085382;28;20024;-45
2022/11/11 11:00:55;;;;;;;13.85;1.95;;;14.80;99.90;;;;;;5077260;28;20439;-46
2022/11/11 11:03:33;;;;;;;9.38;2.00;;;14.70;99.90;;;;;;5074878;28;20023;-44
2022/11/11 11:06:13;;;;;;;11.02;2.20;;;14.70;99.90;;;;;;5072532;28;20577;-43
2022/11/11 11:08:48;;;;;;;10.77;2.08;;;15.00;99.90;;;;;;5074848;28;20038;-47
2022/11/11 11:11:23;;;;;;;15.80;2.47;;;15.50;99.90;;;;;;5079936;28;20020;-50
2022/11/11 11:13:53;;;;;;;9.65;2.78;;;15.80;99.90;;;;;;5079531;28;20020;-46
2022/11/11 11:16:24;;;;;;;12.07;2.22;;;15.80;99.90;;;;;;5071680;28;20089;-46
2022/11/11 11:19:17;;;;;;;10.32;2.25;;;15.80;99.90;;;;;;5073276;28;20064;-48
2022/11/11 11:22:00;;;;;;;10.55;1.98;;;15.70;99.90;;;;;;5078562;28;20513;-51
2022/11/11 11:24:27;;;;;;;12.65;1.95;;;16.40;99.90;;;;;;5075355;28;20114;-47
2022/11/11 11:26:58;;;;;;;11.23;3.20;;;17.00;99.90;;;;;;5080965;28;20031;-43
2022/11/11 11:29:44;;;;;;;14.85;2.42;;;17.10;99.90;;;;;;5071979;28;20075;-53
2022/11/11 11:32:15;;;;;;;12.52;1.80;;;17.10;99.90;;;;;;5073586;28;20055;-46
2022/11/11 11:34:48;;;;;;;8.90;1.90;;;16.80;99.90;;;;;;5071557;28;20024;-46
2022/11/11 11:37:15;;;;;;;9.30;2.45;;;16.50;99.90;;;;;;5074480;28;20021;-56
2022/11/11 11:39:41;;;;;;;9.50;2.00;;;16.30;99.90;;;;;;5077122;28;20028;-43
2022/11/11 11:42:09;;;;;;;9.50;1.90;;;16.10;99.90;;;;;;5074456;28;20028;-44
2022/11/11 11:44:38;;;;;;;7.60;2.10;;;16.10;99.90;;;;;;5086435;28;20028;-56
2022/11/11 11:47:24;;;;;;;13.80;2.58;;;16.10;99.90;;;;;;5087075;28;20027;-48
2022/11/11 11:49:59;;;;;;;10.10;2.17;;;16.00;99.90;;;;;;5086595;28;20054;-45
2022/11/11 11:52:42;;;;;;;9.57;2.35;;;16.40;99.90;;;;;;5086299;28;20028;-46
2022/11/11 11:55:15;;;;;;;13.57;2.30;;;16.80;99.90;;;;;;5072059;28;20022;-49
2022/11/11 11:57:54;;;;;;;11.02;2.03;;;17.60;99.90;;;;;;5072253;28;20027;-49
2022/11/11 12:00:24;;;;;;;10.83;2.10;;;17.90;99.90;;;;;;5072888;28;20039;-45
2022/11/11 12:03:14;;;;;;;7.82;1.98;;;19.10;99.90;;;;;;5088756;28;20785;-48
2022/11/11 12:05:59;;;;;;;8.52;2.20;;;20.60;99.90;;;;;;5072492;28;20059;-44
2022/11/11 12:09:02;;;;;;;10.95;2.05;;;21.60;99.90;;;;;;5071980;28;20032;-47
2022/11/11 12:11:41;;;;;;;6.95;1.85;;;22.50;99.90;;;;;;5075590;28;20065;-46
2022/11/11 12:14:22;;;;;;;9.30;1.80;;;23.80;99.90;;;;;;5075343;28;20025;-43
2022/11/11 12:17:16;;;;;;;9.52;1.60;;;25.00;96.40;;;;;;5073892;28;20032;-52
2022/11/11 12:19:48;;;;;;;9.95;1.92;;;25.70;94.70;;;;;;5077108;28;20490;-53
2022/11/11 12:22:39;;;;;;;10.43;2.08;;;24.70;94.50;;;;;;5084133;28;20497;-47
2022/11/11 12:25:14;;;;;;;11.23;1.80;;;23.30;95.00;;;;;;5087023;28;20415;-59
2022/11/11 12:27:51;;;;;;;7.50;1.60;;;20.80;98.20;;;;;;5084542;28;20488;-43
2022/11/11 12:30:20;;;;;;;6.75;1.67;;;19.50;99.90;;;;;;5087522;28;20051;-46
2022/11/11 12:33:08;;;;;;;5.70;1.75;;;19.90;99.90;;;;;;5085815;28;20020;-49
2022/11/11 12:35:53;;;;;;;10.30;1.65;;;20.70;99.90;;;;;;5087792;28;20077;-56
2022/11/11 12:38:42;;;;;;;12.82;2.00;;;20.60;99.90;;;;;;5087717;28;20477;-48
2022/11/11 12:41:13;;;;;;;11.25;1.98;;;20.60;99.90;;;;;;5089322;28;20508;-49
2022/11/11 12:44:04;;;;;;;8.93;1.65;;;20.50;99.90;;;;;;5092311;28;20053;-53
2022/11/11 12:46:44;;;;;;;7.57;1.90;;;19.90;99.90;;;;;;5090961;28;20012;-51
2022/11/11 12:49:19;;;;;;;9.63;2.08;;;19.00;99.90;;;;;;5091016;28;20038;-43
2022/11/11 12:51:50;;;;;;;15.38;2.45;;;18.00;99.90;;;;;;5089814;28;20020;-46
2022/11/11 12:54:27;;;;;;;12.73;2.30;;;17.30;99.90;;;;;;5104376;28;20119;-52
2022/11/11 12:56:55;;;;;;;10.98;2.20;;;17.20;99.90;;;;;;5087341;28;20035;-52
2022/11/11 12:59:23;;;;;;;9.50;2.10;;;16.90;99.90;;;;;;5089137;28;20032;-54
2022/11/11 13:02:01;;;;;;;8.35;2.08;;;16.80;99.90;;;;;;5089305;28;20530;-49
2022/11/11 13:04:48;;;;;;;9.85;1.95;;;16.80;99.90;;;;;;5084424;28;20067;-46
2022/11/11 13:07:23;;;;;;;13.30;2.45;;;16.70;99.90;;;;;;5091245;28;20046;-51
2022/11/11 13:10:03;;;;;;;9.93;2.47;;;16.60;99.90;;;;;;5091906;28;20032;-50
2022/11/11 13:12:42;;;;;;;8.45;2.08;;;16.30;99.90;;;;;;5081724;28;20086;-49
2022/11/11 13:15:23;;;;;;;9.23;1.92;;;16.10;99.90;;;;;;5074244;28;20028;-45
2022/11/11 13:17:49;;;;;;;11.13;2.00;;;16.00;99.90;;;;;;5073463;28;20020;-46
2022/11/11 13:20:18;;;;;;;8.52;1.88;;;15.80;99.90;;;;;;5075710;28;20110;-52
2022/11/11 13:22:49;;;;;;;10.23;2.47;;;15.70;99.90;;;;;;5075537;28;20032;-46
2022/11/11 13:25:22;;;;;;;6.88;1.73;;;15.60;99.90;;;;;;5074375;28;20025;-45
2022/11/11 13:27:54;;;;;;;10.57;2.20;;;15.50;99.90;;;;;;5091242;28;20084;-53
2022/11/11 13:30:25;;;;;;;6.85;1.95;;;15.30;99.90;;;;;;5092929;28;20020;-45
2022/11/11 13:33:18;;;;;;;9.70;2.03;;;15.30;99.90;;;;;;5092827;28;20089;-53
2022/11/11 13:35:52;;;;;;;6.20;1.92;;;15.20;99.90;;;;;;5083633;28;20032;-46
2022/11/11 13:38:46;;;;;;;9.10;1.80;;;15.10;99.90;;;;;;5090872;28;20056;-53
2022/11/11 13:41:19;;;;;;;7.93;1.85;;;14.90;99.90;;;;;;5085735;28;20033;-48
2022/11/11 13:43:46;;;;;;;5.60;1.90;;;14.80;99.90;;;;;;5091821;28;20056;-49
2022/11/11 13:46:44;;;;;;;12.15;2.42;;;14.80;99.90;;;;;;5075127;28;20440;-51
2022/11/11 13:49:25;;;;;;;5.53;1.70;;;14.70;99.90;;;;;;5073663;28;20044;-42
2022/11/11 13:51:59;;;;;;;6.03;2.15;;;14.60;99.90;;;;;;5077235;28;20075;-48
2022/11/11 13:54:40;;;;;;;7.60;1.90;;;14.50;99.90;;;;;;5073526;28;20021;-44
2022/11/11 13:57:19;;;;;;;10.50;1.95;;;14.40;99.90;;;;;;5083673;28;20024;-43
2022/11/11 13:59:52;;;;;;;;;;;14.50;99.90;;;;;;5092644;28;20503;-42
2022/11/11 14:02:17;;;;;;;8.50;2.13;;;14.50;99.90;;;;;;5077271;28;19909;-49
2022/11/11 14:05:01;;;;;;;10.35;2.20;;;14.50;99.90;;;;;;5072665;28;20485;-43
2022/11/11 14:07:48;;;;;;;12.00;2.47;;;14.50;99.90;;;;;;5074142;28;20037;-54
2022/11/11 14:10:16;;;;;;;10.85;2.13;;;14.40;99.90;;;;;;5075656;28;20101;-47
2022/11/11 14:12:47;;;;;;;8.80;2.38;;;14.50;99.90;;;;;;5074057;28;20021;-45
2022/11/11 14:15:32;;;;;;;8.70;2.40;;;14.40;99.90;;;;;;5074604;28;20052;-43
2022/11/11 14:17:57;;;;;;;10.48;2.13;;;14.30;99.90;;;;;;5072564;28;20481;-43